Terminal Aerodrome Forecast (TAF)

TAF

Data at: 0855 UTC 29 Jan 2020

TAF for:NVSC (Sola/Vanua Lava Arpt, --, NV) issued at 0430 UTC 29 Jan 2020
Text:TAF NVSC 290430Z 2906/3006 12010KT 9999 SCT020 BKN040
Forecast period:0600 UTC 29 January 2020 to 0600 UTC 30 January 2020
Forecast type:FROM: standard forecast or significant change
Winds:from the ESE (120 degrees) at 12 MPH (10 knots; 5.1 m/s)
Visibility:6 or more sm (10+ km)
Ceiling:4000 feet AGL
Clouds: scattered clouds at 2000 feet AGL, broken clouds at 4000 feet AGL
Text:INTER 2906/2912 8000 SHRA FEW010 BKN018 OVC040
Forecast period:0600 to 1200 UTC 29 January 2020
Forecast type:TEMPORARY: The following changes expected for less than half the time period
Visibility: 5 sm ( 8 km)
Ceiling:1800 feet AGL
Clouds: few clouds at 1000 feet AGL, broken clouds at 1800 feet AGL, overcast cloud deck at 4000 feet AGL
Weather:SHRA (rain showers)

TAF

Data at: 0855 UTC 29 Jan 2020

TAF for:NVSG (Longana Arpt, --, NV) issued at 0430 UTC 29 Jan 2020
Text:TAF NVSG 290430Z 2906/3006 11010KT 9999 SCT020
Forecast period:0600 UTC 29 January 2020 to 0600 UTC 30 January 2020
Forecast type:FROM: standard forecast or significant change
Winds:from the ESE (110 degrees) at 12 MPH (10 knots; 5.1 m/s)
Visibility:6 or more sm (10+ km)
Ceiling:at least 12,000 feet AGL
Clouds: scattered clouds at 2000 feet AGL
Text:PROB30
Forecast period:1800 to 2000 UTC 29 January 2020
Forecast type:TEMPORARY: The following changes expected for less than half the time period
Visibility: 6 sm ( 9 km)
Ceiling:1800 feet AGL
Clouds: broken clouds at 1800 feet AGL, overcast cloud deck at 4000 feet AGL
Weather:SHRA (rain showers)

TAF

Data at: 0855 UTC 29 Jan 2020

TAF for:NVSS (Santo/Pekoa Intl, --, NV) issued at 0430 UTC 29 Jan 2020
Text:TAF NVSS 290430Z 2906/3006 10010KT 9999 SCT020
Forecast period:0600 UTC 29 January 2020 to 0600 UTC 30 January 2020
Forecast type:FROM: standard forecast or significant change
Winds:from the E (100 degrees) at 12 MPH (10 knots; 5.1 m/s)
Visibility:6 or more sm (10+ km)
Ceiling:at least 12,000 feet AGL
Clouds: scattered clouds at 2000 feet AGL
Text:PROB30
Forecast period:0600 to 0900 UTC 29 January 2020
Forecast type:TEMPORARY: The following changes expected for less than half the time period
Visibility: 6 sm ( 9 km)
Ceiling:1800 feet AGL
Clouds: broken clouds at 1800 feet AGL
Weather:SHRA (rain showers)

TAF

Data at: 0855 UTC 29 Jan 2020

TAF for:NVSL (Malekula/Lamap, --, NV) issued at 0430 UTC 29 Jan 2020
Text:TAF NVSL 290430Z 2906/3006 12013KT 9999 SCT020
Forecast period:0600 UTC 29 January 2020 to 0600 UTC 30 January 2020
Forecast type:FROM: standard forecast or significant change
Winds:from the ESE (120 degrees) at 15 MPH (13 knots; 6.7 m/s)
Visibility:6 or more sm (10+ km)
Ceiling:at least 12,000 feet AGL
Clouds: scattered clouds at 2000 feet AGL
Text:PROB40
Forecast period:0600 to 0900 UTC 29 January 2020
Forecast type:TEMPORARY: The following changes expected for less than half the time period
Visibility: 6 sm ( 9 km)
Ceiling:1800 feet AGL
Clouds: broken clouds at 1800 feet AGL
Weather:SHRA (rain showers)

TAF

Data at: 0855 UTC 29 Jan 2020

TAF for:NVSP (Norsup Arpt, --, NV) issued at 0430 UTC 29 Jan 2020
Text:TAF NVSP 290430Z 2906/3006 10010KT 9999 SCT020
Forecast period:0600 UTC 29 January 2020 to 0600 UTC 30 January 2020
Forecast type:FROM: standard forecast or significant change
Winds:from the E (100 degrees) at 12 MPH (10 knots; 5.1 m/s)
Visibility:6 or more sm (10+ km)
Ceiling:at least 12,000 feet AGL
Clouds: scattered clouds at 2000 feet AGL
Text:PROB30
Forecast period:0600 to 0900 UTC 29 January 2020
Forecast type:TEMPORARY: The following changes expected for less than half the time period
Visibility: 6 sm ( 9 km)
Ceiling:1800 feet AGL
Clouds: broken clouds at 1800 feet AGL, overcast cloud deck at 4000 feet AGL
Weather:SHRA (rain showers)

TAF

Data at: 0855 UTC 29 Jan 2020

TAF for:NVVV (Efate/Bauerfield Int, --, NV) issued at 0430 UTC 29 Jan 2020
Text:TAF NVVV 290430Z 2906/3006 10010KT 9999 SCT020
Forecast period:0600 UTC 29 January 2020 to 0600 UTC 30 January 2020
Forecast type:FROM: standard forecast or significant change
Winds:from the E (100 degrees) at 12 MPH (10 knots; 5.1 m/s)
Visibility:6 or more sm (10+ km)
Ceiling:at least 12,000 feet AGL
Clouds: scattered clouds at 2000 feet AGL

TAF

Data at: 0855 UTC 29 Jan 2020

TAF for:NVVW (Tanna Arpt, --, NV) issued at 0430 UTC 29 Jan 2020
Text:TAF NVVW 290430Z 2906/3006 13510KT 9999 SCT020
Forecast period:0600 UTC 29 January 2020 to 0600 UTC 30 January 2020
Forecast type:FROM: standard forecast or significant change
Winds:from the SE (135 degrees) at 12 MPH (10 knots; 5.1 m/s)
Visibility:6 or more sm (10+ km)
Ceiling:at least 12,000 feet AGL
Clouds: scattered clouds at 2000 feet AGL

TAF

Data at: 0855 UTC 29 Jan 2020

TAF for:NVVA (Aneityum/Mystery Isl, --, NV) issued at 0430 UTC 29 Jan 2020
Text:TAF NVVA 290430Z 2906/3006 13510KT 9999 SCT020
Forecast period:0600 UTC 29 January 2020 to 0600 UTC 30 January 2020
Forecast type:FROM: standard forecast or significant change
Winds:from the SE (135 degrees) at 12 MPH (10 knots; 5.1 m/s)
Visibility:6 or more sm (10+ km)
Ceiling:at least 12,000 feet AGL
Clouds: scattered clouds at 2000 feet AGL

TAF

Data at: 0900 UTC 29 Jan 2020

TAF NVVV 290430Z 2906/3006 10010KT 9999 SCT020
TAF NVSC 290430Z 2906/3006 12010KT 9999 SCT020 BKN040
  INTER 2906/2912 8000 SHRA FEW010 BKN018 OVC040
TAF NVSG 290430Z 2906/3006 11010KT 9999 SCT020
  PROB30
  INTER 2918/2920 9000 SHRA BKN018 OVC040
TAF NVSS 290430Z 2906/3006 10010KT 9999 SCT020
  PROB30
  INTER 2906/2909 9000 SHRA BKN018
TAF NVSL 290430Z 2906/3006 12013KT 9999 SCT020
  PROB40
  INTER 2906/2909 9000 SHRA BKN018
TAF NVSP 290430Z 2906/3006 10010KT 9999 SCT020
  PROB30
  INTER 2906/2909 9000 SHRA BKN018 OVC040
TAF NVVW 290430Z 2906/3006 13510KT 9999 SCT020
TAF NVVA 290430Z 2906/3006 13510KT 9999 SCT020